createdAt,value
2023-05-21T00:01:45.796Z,5.60
2023-05-21T00:04:49.098Z,6.30
2023-05-21T00:07:53.520Z,6.25
2023-05-21T00:10:56.589Z,5.82
2023-05-21T00:13:59.555Z,6.43
2023-05-21T00:17:02.823Z,6.50
2023-05-21T00:20:07.506Z,6.35
2023-05-21T00:23:10.758Z,5.75
2023-05-21T00:26:14.005Z,5.85
2023-05-21T00:29:18.593Z,6.37
2023-05-21T00:32:21.567Z,6.75
2023-05-21T00:35:24.547Z,6.20
2023-05-21T00:38:28.052Z,7.10
2023-05-21T00:41:35.424Z,6.53
2023-05-21T00:44:39.444Z,6.27
2023-05-21T00:47:44.223Z,6.90
2023-05-21T00:50:47.414Z,7.78
2023-05-21T00:53:53.235Z,6.80
2023-05-21T00:56:56.521Z,7.65
2023-05-21T00:59:59.898Z,8.10
2023-05-21T01:03:05.532Z,7.75
2023-05-21T01:06:10.011Z,7.75
2023-05-21T01:09:13.128Z,7.97
2023-05-21T01:12:17.859Z,8.25
2023-05-21T01:15:21.188Z,7.00
2023-05-21T01:18:25.005Z,8.18
2023-05-21T01:21:30.583Z,7.80
2023-05-21T01:24:34.817Z,6.75
2023-05-21T01:27:38.132Z,6.93
2023-05-21T01:30:42.711Z,6.43
2023-05-21T01:33:50.397Z,6.07
2023-05-21T01:37:01.557Z,5.97
2023-05-21T01:40:23.989Z,6.32
2023-05-21T01:43:29.726Z,6.40
2023-05-21T01:46:36.689Z,5.77
2023-05-21T01:49:40.499Z,6.32
2023-05-21T01:52:54.910Z,6.93
2023-05-21T01:55:59.480Z,6.38
2023-05-21T01:59:02.945Z,6.72
2023-05-21T02:02:06.192Z,6.60
2023-05-21T02:05:09.862Z,6.93
2023-05-21T02:08:15.127Z,6.25
2023-05-21T02:11:20.902Z,7.25
2023-05-21T02:14:25.432Z,5.82
2023-05-21T02:17:35.073Z,5.70
2023-05-21T02:20:38.510Z,5.97
2023-05-21T02:23:42.674Z,6.28
2023-05-21T02:26:47.248Z,6.55
2023-05-21T02:29:50.576Z,6.82
2023-05-21T02:32:53.854Z,6.43
2023-05-21T02:35:57.314Z,6.80
2023-05-21T02:39:02.020Z,7.65
2023-05-21T02:42:05.420Z,8.95
2023-05-21T02:45:12.976Z,9.00
2023-05-21T02:48:18.455Z,8.53
2023-05-21T02:51:21.763Z,9.05
2023-05-21T02:54:25.083Z,7.93
2023-05-21T02:57:28.448Z,7.53
2023-05-21T03:00:31.562Z,7.05
2023-05-21T03:03:36.555Z,7.40
2023-05-21T03:06:40.406Z,6.65
2023-05-21T03:09:43.459Z,7.63
2023-05-21T03:12:47.227Z,7.15
2023-05-21T03:15:56.218Z,7.70
2023-05-21T03:18:59.444Z,6.60
2023-05-21T03:22:04.005Z,6.32
2023-05-21T03:25:11.031Z,6.78
2023-05-21T03:28:14.950Z,6.88
2023-05-21T03:31:26.750Z,6.95
2023-05-21T03:34:47.502Z,6.50
2023-05-21T03:37:52.197Z,7.22
2023-05-21T03:40:55.274Z,5.95
2023-05-21T03:43:58.697Z,5.68
2023-05-21T03:47:06.361Z,6.65
2023-05-21T03:50:12.460Z,6.10
2023-05-21T03:53:15.857Z,5.57
2023-05-21T03:56:19.439Z,5.38
2023-05-21T03:59:23.512Z,6.03
2023-05-21T04:02:28.361Z,5.65
2023-05-21T04:05:31.771Z,6.10
2023-05-21T04:08:35.169Z,6.20
2023-05-21T04:11:38.342Z,6.70
2023-05-21T04:14:41.860Z,6.05
2023-05-21T04:17:47.515Z,5.57
2023-05-21T04:20:50.670Z,6.30
2023-05-21T04:23:54.331Z,6.20
2023-05-21T04:27:17.940Z,5.53
2023-05-21T04:30:22.220Z,6.30
2023-05-21T04:33:25.873Z,7.47
2023-05-21T04:36:29.190Z,6.20
2023-05-21T04:39:33.183Z,6.20
2023-05-21T04:42:36.623Z,6.32
2023-05-21T04:45:40.257Z,6.03
2023-05-21T04:48:45.240Z,6.10
2023-05-21T04:51:49.626Z,5.47
2023-05-21T04:54:54.147Z,5.82
2023-05-21T04:57:57.547Z,5.78
2023-05-21T05:01:03.551Z,6.30
2023-05-21T05:04:07.231Z,5.72
2023-05-21T05:07:10.775Z,5.50
2023-05-21T05:10:14.373Z,5.43
2023-05-21T05:13:17.442Z,5.93
2023-05-21T05:16:25.694Z,5.53
2023-05-21T05:19:35.227Z,5.43
2023-05-21T05:22:38.644Z,5.33
2023-05-21T05:25:41.934Z,5.10
2023-05-21T05:28:46.466Z,5.18
2023-05-21T05:31:50.230Z,6.18
2023-05-21T05:34:53.671Z,5.38
2023-05-21T05:37:57.062Z,4.73
2023-05-21T05:41:00.326Z,5.40
2023-05-21T05:44:04.461Z,6.13
2023-05-21T05:47:11.895Z,5.20
2023-05-21T05:50:16.002Z,4.80
2023-05-21T05:53:19.318Z,5.03
2023-05-21T05:56:22.639Z,5.00
2023-05-21T05:59:25.818Z,5.07
2023-05-21T06:02:33.671Z,4.78
2023-05-21T06:05:36.934Z,5.32
2023-05-21T06:08:40.673Z,4.77
2023-05-21T06:11:44.006Z,4.65
2023-05-21T06:14:49.081Z,3.97
2023-05-21T06:17:52.381Z,4.45
2023-05-21T06:20:55.956Z,4.88
2023-05-21T06:24:00.175Z,4.20
2023-05-21T06:27:05.165Z,4.70
2023-05-21T06:30:09.704Z,3.95
2023-05-21T06:33:15.405Z,4.65
2023-05-21T06:36:18.960Z,4.45
2023-05-21T06:39:25.673Z,4.80
2023-05-21T06:42:28.756Z,4.07
2023-05-21T06:45:51.798Z,4.25
2023-05-21T06:49:14.148Z,4.18
2023-05-21T06:52:18.105Z,4.40
2023-05-21T06:55:21.797Z,4.93
2023-05-21T06:58:37.669Z,4.53
2023-05-21T07:01:42.660Z,5.10
2023-05-21T07:04:46.158Z,3.80
2023-05-21T07:07:49.284Z,4.40
2023-05-21T07:10:52.595Z,4.80
2023-05-21T07:13:58.829Z,4.80
2023-05-21T07:17:02.195Z,4.35
2023-05-21T07:20:10.112Z,4.22
2023-05-21T07:23:15.269Z,4.43
2023-05-21T07:29:36.849Z,4.43
2023-05-21T07:32:40.132Z,4.50
2023-05-21T07:35:43.621Z,4.00
2023-05-21T07:38:46.942Z,4.50
2023-05-21T07:41:50.166Z,4.20
2023-05-21T07:44:53.503Z,4.28
2023-05-21T07:47:57.399Z,4.03
2023-05-21T07:51:01.879Z,3.95
2023-05-21T07:54:05.299Z,4.07
2023-05-21T07:57:11.763Z,4.47
2023-05-21T08:00:44.076Z,5.82
2023-05-21T08:03:48.130Z,4.18
2023-05-21T08:06:51.655Z,4.35
2023-05-21T08:09:54.721Z,3.92
2023-05-21T08:12:58.028Z,3.70
2023-05-21T08:16:01.177Z,3.90
2023-05-21T08:19:04.623Z,3.83
2023-05-21T08:22:08.300Z,3.92
2023-05-21T08:25:13.563Z,3.88
2023-05-21T08:28:16.727Z,3.67
2023-05-21T08:31:19.718Z,3.95
2023-05-21T08:34:23.409Z,4.22
2023-05-21T08:37:37.400Z,4.18
2023-05-21T08:40:55.169Z,3.63
2023-05-21T08:44:02.136Z,3.70
2023-05-21T08:47:08.088Z,4.05
2023-05-21T08:50:14.050Z,3.92
2023-05-21T08:53:27.356Z,3.75
2023-05-21T08:56:36.053Z,4.30
2023-05-21T08:59:44.241Z,3.47
2023-05-21T09:02:56.507Z,4.32
2023-05-21T09:06:01.999Z,4.07
2023-05-21T09:09:37.011Z,3.88
2023-05-21T09:12:42.785Z,3.63
2023-05-21T09:15:47.301Z,4.10
2023-05-21T09:18:51.977Z,3.60
2023-05-21T09:22:03.882Z,3.85
2023-05-21T09:25:10.690Z,3.47
2023-05-21T09:28:15.869Z,3.88
2023-05-21T09:31:19.105Z,3.40
2023-05-21T09:34:25.323Z,3.78
2023-05-21T09:37:28.374Z,3.60
2023-05-21T09:40:31.988Z,4.22
2023-05-21T09:43:36.974Z,3.83
2023-05-21T09:46:41.939Z,4.20
2023-05-21T09:49:45.763Z,4.20
2023-05-21T09:52:50.811Z,4.18
2023-05-21T09:55:58.132Z,4.00
2023-05-21T09:59:04.598Z,3.97
2023-05-21T10:02:22.915Z,4.27
2023-05-21T10:05:31.098Z,4.00
2023-05-21T10:08:39.579Z,3.45
2023-05-21T10:11:45.081Z,3.70
2023-05-21T10:14:54.218Z,4.20
2023-05-21T10:17:59.247Z,3.57
2023-05-21T10:21:07.269Z,3.53
2023-05-21T10:24:11.416Z,3.85
2023-05-21T10:27:14.712Z,4.10
2023-05-21T10:30:18.680Z,3.85
2023-05-21T10:33:24.427Z,3.30
2023-05-21T10:36:33.538Z,3.75
2023-05-21T10:39:39.036Z,3.75
2023-05-21T10:43:23.389Z,3.88
2023-05-21T10:47:11.426Z,4.30
2023-05-21T10:50:35.720Z,3.70
2023-05-21T10:54:11.296Z,3.17
2023-05-21T10:57:29.298Z,3.75
2023-05-21T11:01:00.078Z,4.00
2023-05-21T11:04:04.986Z,3.85
2023-05-21T11:07:08.629Z,3.77
2023-05-21T11:10:40.837Z,4.70
2023-05-21T11:13:51.230Z,4.30
2023-05-21T11:16:55.070Z,3.60
2023-05-21T11:20:05.374Z,4.15
2023-05-21T11:23:11.446Z,3.80
2023-05-21T11:26:19.241Z,4.07
2023-05-21T11:29:33.634Z,4.13
2023-05-21T11:32:41.403Z,3.65
2023-05-21T11:35:50.258Z,4.20
2023-05-21T11:39:10.947Z,3.67
2023-05-21T11:42:39.512Z,3.67
2023-05-21T11:45:47.332Z,3.60
2023-05-21T11:48:52.867Z,3.67
2023-05-21T11:51:56.940Z,3.78
2023-05-21T11:55:00.207Z,3.10
2023-05-21T11:58:03.799Z,3.78
2023-05-21T12:01:07.240Z,4.10
2023-05-21T12:04:13.718Z,3.33
2023-05-21T12:07:19.417Z,3.50
2023-05-21T12:10:24.329Z,3.50
2023-05-21T12:13:28.601Z,3.60
2023-05-21T12:16:32.888Z,3.70
2023-05-21T12:19:38.197Z,3.58
2023-05-21T12:22:45.075Z,3.42
2023-05-21T12:25:48.561Z,3.60
2023-05-21T12:28:56.329Z,3.40
2023-05-21T12:32:01.397Z,3.70
2023-05-21T12:35:04.908Z,3.08
2023-05-21T12:38:09.728Z,4.00
2023-05-21T12:41:12.711Z,3.87
2023-05-21T12:44:15.794Z,4.03
2023-05-21T12:47:22.765Z,3.70
2023-05-21T12:50:26.754Z,3.85
2023-05-21T12:53:44.605Z,3.80
2023-05-21T12:56:47.540Z,3.77
2023-05-21T12:59:51.661Z,3.67
2023-05-21T13:02:57.165Z,3.53
2023-05-21T13:06:01.324Z,3.40
2023-05-21T13:09:04.759Z,4.00
2023-05-21T13:12:08.299Z,3.10
2023-05-21T13:15:11.536Z,3.63
2023-05-21T13:18:16.090Z,3.67
2023-05-21T13:21:19.238Z,3.70
2023-05-21T13:24:22.329Z,3.60
2023-05-21T13:27:25.721Z,3.77
2023-05-21T13:30:28.956Z,3.42
2023-05-21T13:33:32.371Z,3.65
2023-05-21T13:36:36.144Z,3.45
2023-05-21T13:39:39.328Z,3.78
2023-05-21T13:42:43.573Z,3.33
2023-05-21T13:45:49.621Z,4.10
2023-05-21T13:48:53.224Z,3.65
2023-05-21T13:51:58.284Z,3.50
2023-05-21T13:55:01.712Z,3.45
2023-05-21T13:58:04.759Z,3.73
2023-05-21T14:01:08.093Z,3.30
2023-05-21T14:04:12.301Z,3.45
2023-05-21T14:07:15.668Z,3.22
2023-05-21T14:10:18.890Z,3.80
2023-05-21T14:13:22.383Z,3.30
2023-05-21T14:16:27.643Z,3.60
2023-05-21T14:19:30.759Z,3.60
2023-05-21T14:22:34.047Z,3.40
2023-05-21T14:25:37.674Z,3.45
2023-05-21T14:28:41.908Z,3.20
2023-05-21T14:31:46.484Z,3.55
2023-05-21T14:34:49.690Z,3.53
2023-05-21T14:37:54.192Z,3.28
2023-05-21T14:40:57.794Z,3.80
2023-05-21T14:44:01.020Z,3.47
2023-05-21T14:47:04.344Z,4.07
2023-05-21T14:50:09.213Z,4.35
2023-05-21T14:53:12.675Z,3.90
2023-05-21T14:56:15.901Z,3.42
2023-05-21T14:59:19.072Z,3.57
2023-05-21T15:02:22.662Z,3.78
2023-05-21T15:10:08.489Z,3.25
2023-05-21T15:13:11.560Z,3.90
2023-05-21T15:16:15.697Z,3.60
2023-05-21T15:19:20.705Z,3.90
2023-05-21T15:22:23.718Z,3.28
2023-05-21T15:25:26.883Z,3.70
2023-05-21T15:28:29.973Z,3.42
2023-05-21T15:31:33.395Z,3.57
2023-05-21T15:34:36.471Z,3.35
2023-05-21T15:37:43.799Z,3.75
2023-05-21T15:40:47.789Z,3.63
2023-05-21T15:43:50.803Z,3.22
2023-05-21T15:46:55.029Z,3.30
2023-05-21T15:50:00.520Z,3.03
2023-05-21T15:53:04.846Z,3.33
2023-05-21T15:56:10.505Z,3.28
2023-05-21T15:59:14.285Z,3.90
2023-05-21T16:02:17.410Z,3.27
2023-05-21T16:05:20.708Z,3.78
2023-05-21T16:08:23.940Z,3.45
2023-05-21T16:11:27.936Z,3.75
2023-05-21T16:14:31.331Z,3.53
2023-05-21T16:17:34.379Z,3.30
2023-05-21T16:25:19.887Z,3.50
2023-05-21T16:28:24.613Z,3.60
2023-05-21T16:31:27.940Z,3.50
2023-05-21T16:34:31.236Z,3.67
2023-05-21T16:37:34.648Z,3.88
2023-05-21T16:40:38.003Z,4.07
2023-05-21T16:43:41.133Z,3.45
2023-05-21T16:46:44.270Z,3.20
2023-05-21T16:49:47.562Z,3.60
2023-05-21T16:52:50.898Z,3.35
2023-05-21T16:55:54.379Z,3.58
2023-05-21T16:58:57.434Z,3.50
2023-05-21T17:02:00.790Z,3.38
2023-05-21T17:05:04.917Z,3.67
2023-05-21T17:08:10.927Z,3.88
2023-05-21T17:11:14.124Z,3.88
2023-05-21T17:14:33.144Z,3.78
2023-05-21T17:17:37.240Z,3.70
2023-05-21T17:20:40.684Z,3.23
2023-05-21T17:23:46.584Z,4.05
2023-05-21T17:26:49.715Z,3.70
2023-05-21T17:29:53.114Z,3.65
2023-05-21T17:32:56.249Z,3.83
2023-05-21T17:35:59.375Z,3.80
2023-05-21T17:39:02.456Z,3.80
2023-05-21T17:42:06.044Z,4.00
2023-05-21T17:45:09.798Z,4.00
2023-05-21T17:48:13.044Z,3.78
2023-05-21T17:51:16.573Z,3.13
2023-05-21T17:54:19.953Z,3.53
2023-05-21T17:57:23.476Z,4.03
2023-05-21T18:00:26.753Z,3.45
2023-05-21T18:03:30.390Z,3.75
2023-05-21T18:06:33.717Z,4.33
2023-05-21T18:09:36.869Z,3.63
2023-05-21T18:12:39.866Z,3.90
2023-05-21T18:15:43.137Z,4.07
2023-05-21T18:18:46.725Z,4.55
2023-05-21T18:21:49.906Z,4.30
2023-05-21T18:24:52.752Z,4.65
2023-05-21T18:27:56.494Z,4.45
2023-05-21T18:31:06.471Z,4.20
2023-05-21T18:34:09.842Z,4.00
2023-05-21T18:37:13.291Z,4.10
2023-05-21T18:40:18.263Z,4.75
2023-05-21T18:43:22.040Z,4.53
2023-05-21T18:46:25.625Z,4.13
2023-05-21T18:49:33.983Z,3.60
2023-05-21T18:52:37.180Z,4.97
2023-05-21T18:55:40.384Z,4.78
2023-05-21T18:58:44.073Z,4.60
2023-05-21T19:01:47.391Z,3.80
2023-05-21T19:04:50.685Z,4.57
2023-05-21T19:07:53.794Z,4.47
2023-05-21T19:10:57.488Z,5.10
2023-05-21T19:14:01.616Z,5.13
2023-05-21T19:17:05.213Z,5.80
2023-05-21T19:20:09.541Z,5.97
2023-05-21T19:23:12.924Z,6.33
2023-05-21T19:26:17.056Z,4.93
2023-05-21T19:29:21.685Z,5.13
2023-05-21T19:32:25.624Z,5.00
2023-05-21T19:35:32.696Z,4.80
2023-05-21T19:38:36.274Z,4.87
2023-05-21T19:41:40.635Z,4.68
2023-05-21T19:44:44.148Z,4.65
2023-05-21T19:47:47.443Z,4.90
2023-05-21T19:50:51.359Z,4.40
2023-05-21T19:53:54.514Z,5.23
2023-05-21T19:56:58.111Z,4.80
2023-05-21T20:00:01.655Z,4.72
2023-05-21T20:03:07.170Z,5.10
2023-05-21T20:06:13.207Z,5.32
2023-05-21T20:09:18.229Z,6.80
2023-05-21T20:12:21.923Z,8.00
2023-05-21T20:18:42.818Z,6.65
2023-05-21T20:21:45.894Z,5.97
2023-05-21T20:24:48.978Z,5.67
2023-05-21T20:27:52.127Z,4.40
2023-05-21T20:31:02.452Z,5.25
2023-05-21T20:34:07.892Z,5.45
2023-05-21T20:37:11.693Z,4.75
2023-05-21T20:40:15.076Z,4.57
2023-05-21T20:43:21.906Z,5.60
2023-05-21T20:46:25.918Z,5.35
2023-05-21T20:49:29.086Z,5.32
2023-05-21T20:52:32.423Z,4.57
2023-05-21T20:55:35.928Z,5.27
2023-05-21T20:58:40.117Z,4.10
2023-05-21T21:01:43.330Z,5.25
2023-05-21T21:04:50.803Z,4.72
2023-05-21T21:07:55.876Z,4.93
2023-05-21T21:10:59.333Z,4.60
2023-05-21T21:14:03.006Z,4.68
2023-05-21T21:17:06.221Z,5.07
2023-05-21T21:20:10.916Z,5.03
2023-05-21T21:23:13.961Z,4.80
2023-05-21T21:26:17.816Z,4.53
2023-05-21T21:29:21.122Z,4.00
2023-05-21T21:32:26.291Z,5.10
2023-05-21T21:35:29.613Z,4.35
2023-05-21T21:38:32.722Z,4.90
2023-05-21T21:41:35.977Z,4.80
2023-05-21T21:44:39.588Z,5.57
2023-05-21T21:47:42.741Z,4.68
2023-05-21T21:50:46.426Z,4.53
2023-05-21T21:53:49.810Z,4.78
2023-05-21T21:56:53.016Z,5.00
2023-05-21T21:59:56.291Z,4.57
2023-05-21T22:02:59.769Z,5.78
2023-05-21T22:06:03.081Z,4.93
2023-05-21T22:09:07.731Z,4.80
2023-05-21T22:12:12.173Z,4.27
2023-05-21T22:15:20.510Z,5.10
2023-05-21T22:18:38.748Z,4.72
2023-05-21T22:21:46.446Z,4.10
2023-05-21T22:24:51.290Z,4.90
2023-05-21T22:27:54.871Z,4.60
2023-05-21T22:30:59.155Z,4.47
2023-05-21T22:34:02.264Z,4.18
2023-05-21T22:37:06.386Z,4.43
2023-05-21T22:40:10.742Z,4.10
2023-05-21T22:43:14.481Z,4.57
2023-05-21T22:46:17.885Z,4.45
2023-05-21T22:49:20.910Z,4.75
2023-05-21T22:52:24.464Z,4.22
2023-05-21T22:55:27.728Z,4.22
2023-05-21T22:58:32.665Z,4.17
2023-05-21T23:01:38.259Z,4.82
2023-05-21T23:04:44.809Z,4.90
2023-05-21T23:07:48.004Z,4.13
2023-05-21T23:10:51.008Z,4.07
2023-05-21T23:13:54.068Z,4.83
2023-05-21T23:17:02.403Z,4.97
2023-05-21T23:20:07.560Z,3.80
2023-05-21T23:23:11.681Z,4.57
2023-05-21T23:26:14.919Z,4.35
2023-05-21T23:29:18.392Z,4.60
2023-05-21T23:32:21.624Z,4.78
2023-05-21T23:35:24.755Z,4.68
2023-05-21T23:38:28.095Z,4.20
2023-05-21T23:41:31.495Z,4.97
2023-05-21T23:44:34.507Z,4.30
2023-05-21T23:47:37.708Z,4.57
2023-05-21T23:50:40.923Z,4.68
2023-05-21T23:53:44.172Z,5.18
2023-05-21T23:56:47.217Z,4.97
2023-05-21T23:59:50.155Z,4.70
